Time;durP1;ratioP1;P1;durP2;ratioP2;P2;SDS_P1;SDS_P2;PMS_P1;PMS_P2;Temp;Humidity;BMP_temperature;BMP_pressure;BME280_temperature;BME280_humidity;BME280_pressure;Samples;Min_cycle;Max_cycle;Signal;HPM_P1;HPM_P2
2022/08/19 00:01:29;;;;;;;14.60;6.70;;;;;;;23.82;64.14;98681.69;25034;1314;3026789;-70
2022/08/19 00:04:00;;;;;;;13.50;6.80;;;;;;;24.33;62.07;98677.59;25117;1315;3026213;-69
2022/08/19 00:06:29;;;;;;;17.50;8.80;;;;;;;24.44;61.86;98672.02;25106;1315;3027320;-66
2022/08/19 00:09:00;;;;;;;15.50;8.10;;;;;;;24.35;61.65;98675.66;25066;1315;3026283;-71
2022/08/19 00:11:29;;;;;;;17.50;8.30;;;;;;;24.22;61.81;98675.28;25077;1313;3028261;-69
2022/08/19 00:13:56;;;;;;;17.50;8.30;;;;;;;24.11;62.20;98673.30;24219;1315;4873052;-66
2022/08/19 00:16:25;;;;;;;16.20;9.90;;;;;;;24.13;61.70;98677.48;25091;1315;3028718;-70
2022/08/19 00:18:57;;;;;;;11.20;7.60;;;;;;;24.21;61.16;98680.80;25057;1315;3027868;-70
2022/08/19 00:21:26;;;;;;;15.10;7.40;;;;;;;23.92;61.81;98686.95;25135;1313;3052432;-69
2022/08/19 00:23:59;;;;;;;9.60;6.60;;;;;;;23.72;62.41;98693.46;25084;1316;3026413;-70
2022/08/19 00:26:28;;;;;;;11.10;6.60;;;;;;;23.65;62.80;98689.91;25128;1313;3059390;-71
2022/08/19 00:28:57;;;;;;;12.50;6.70;;;;;;;23.60;63.14;98685.51;25096;1313;3026814;-70
2022/08/19 00:31:27;;;;;;;12.90;8.40;;;;;;;23.52;63.27;98685.70;25171;1313;3054696;-68
2022/08/19 00:33:56;;;;;;;16.50;9.30;;;;;;;23.32;64.01;98687.42;25143;1313;3026519;-67
2022/08/19 00:36:25;;;;;;;25.60;12.60;;;;;;;23.26;64.15;98691.91;25187;1313;3026482;-67
2022/08/19 00:38:55;;;;;;;23.20;12.70;;;;;;;23.21;64.63;98692.32;25077;1316;3055181;-66
2022/08/19 00:41:24;;;;;;;21.70;12.70;;;;;;;23.20;64.98;98689.76;25158;1316;3027283;-71
2022/08/19 00:43:57;;;;;;;18.50;8.50;;;;;;;23.22;64.65;98682.48;25106;1315;3055102;-69
2022/08/19 00:46:26;;;;;;;22.40;10.90;;;;;;;23.78;63.59;98678.60;25080;1313;3028491;-66
2022/08/19 00:48:57;;;;;;;18.30;9.90;;;;;;;24.37;62.46;98682.44;25089;1313;3027127;-69
2022/08/19 00:51:27;;;;;;;19.90;10.50;;;;;;;24.50;61.91;98685.31;25070;1312;3026228;-69
2022/08/19 00:53:56;;;;;;;19.80;10.20;;;;;;;24.36;62.24;98684.99;25129;1316;3026581;-67
2022/08/19 00:56:26;;;;;;;21.10;11.60;;;;;;;24.17;62.85;98687.52;25062;1313;3027469;-69
2022/08/19 00:58:56;;;;;;;22.80;10.80;;;;;;;23.98;63.65;98685.80;25086;1313;3026527;-67
2022/08/19 01:01:25;;;;;;;23.90;10.70;;;;;;;23.80;64.27;98691.40;25087;1313;3026836;-67
2022/08/19 01:03:54;;;;;;;20.90;11.40;;;;;;;23.62;65.08;98694.09;25150;1313;3026743;-66
2022/08/19 01:06:24;;;;;;;23.50;10.90;;;;;;;23.47;65.77;98689.75;25077;1316;3070520;-66
2022/08/19 01:08:54;;;;;;;21.70;11.00;;;;;;;23.34;66.76;98686.90;25112;1316;3027082;-68
2022/08/19 01:11:23;;;;;;;25.00;12.70;;;;;;;23.20;67.65;98685.02;25076;1313;3026693;-67
2022/08/19 01:13:53;;;;;;;18.90;8.80;;;;;;;23.10;68.54;98687.05;25085;1313;3026420;-69
2022/08/19 01:16:23;;;;;;;20.10;10.40;;;;;;;23.62;67.13;98685.67;25117;1313;3047767;-66
2022/08/19 01:18:53;;;;;;;26.30;12.60;;;;;;;24.11;65.61;98682.96;25117;1316;3026988;-67
2022/08/19 01:21:38;;;;;;;26.50;13.30;;;;;;;24.18;64.99;98676.38;25027;1313;3026283;-69
2022/08/19 01:24:07;;;;;;;29.90;13.60;;;;;;;24.00;65.24;98674.33;25105;1315;3050779;-68
2022/08/19 01:26:41;;;;;;;26.30;13.20;;;;;;;23.82;65.70;98676.27;25115;1314;3027410;-68
2022/08/19 01:29:10;;;;;;;28.60;12.40;;;;;;;23.68;66.26;98680.19;25035;1314;3068466;-70
2022/08/19 01:31:39;;;;;;;22.60;12.80;;;;;;;23.52;67.08;98680.98;25221;1315;3026179;-70
2022/08/19 01:34:08;;;;;;;22.00;12.50;;;;;;;23.38;67.45;98679.96;25220;1315;3054210;-71
2022/08/19 01:36:46;;;;;;;25.10;12.40;;;;;;;23.20;68.44;98680.36;25174;1312;3026420;-69
2022/08/19 01:39:19;;;;;;;17.10;9.20;;;;;;;23.12;69.28;98680.69;25093;1315;3052130;-69
2022/08/19 01:41:48;;;;;;;18.80;9.90;;;;;;;23.67;68.23;98674.98;25134;1314;3026559;-69
2022/08/19 01:44:20;;;;;;;19.60;10.40;;;;;;;24.14;66.61;98677.77;25128;1315;3027637;-72
2022/08/19 01:46:49;;;;;;;20.90;11.50;;;;;;;24.19;66.20;98675.20;25100;1315;3048362;-73
2022/08/19 01:49:19;;;;;;;23.70;11.90;;;;;;;24.03;66.67;98673.39;25152;1315;3026609;-72
2022/08/19 01:51:49;;;;;;;20.80;11.70;;;;;;;23.87;67.14;98672.67;25156;1315;3027497;-70
2022/08/19 01:54:19;;;;;;;23.10;12.80;;;;;;;23.74;67.47;98674.50;25166;1315;3028804;-71
2022/08/19 01:56:49;;;;;;;28.20;13.30;;;;;;;23.61;67.76;98679.20;25158;1314;3029509;-69
2022/08/19 01:59:20;;;;;;;23.90;13.80;;;;;;;23.46;68.29;98682.28;25093;1316;3026419;-71
2022/08/19 02:01:49;;;;;;;23.90;14.10;;;;;;;23.22;69.42;98681.77;25103;1315;3027650;-69
2022/08/19 02:04:18;;;;;;;16.20;8.80;;;;;;;22.97;70.00;98684.84;25067;1314;3028240;-67
2022/08/19 02:06:47;;;;;;;19.80;11.10;;;;;;;23.40;68.30;98681.49;25080;1313;3054613;-69
2022/08/19 02:09:16;;;;;;;19.70;10.80;;;;;;;23.87;66.53;98677.14;25139;1315;3027067;-67
2022/08/19 02:11:47;;;;;;;20.90;12.10;;;;;;;23.99;66.02;98675.20;25114;1315;3028282;-64
2022/08/19 02:14:16;;;;;;;20.80;11.00;;;;;;;23.85;66.14;98679.55;25127;1315;3030479;-67
2022/08/19 02:16:45;;;;;;;19.10;11.30;;;;;;;23.67;66.45;98685.17;25117;1314;3053617;-70
2022/08/19 02:19:14;;;;;;;20.10;11.90;;;;;;;23.50;67.28;98680.58;25045;1315;3026034;-68
2022/08/19 02:21:43;;;;;;;32.10;12.20;;;;;;;23.34;67.94;98679.64;25145;1313;3054757;-67
2022/08/19 02:24:12;;;;;;;24.90;12.10;;;;;;;23.25;68.37;98680.35;25137;1313;3026767;-66
2022/08/19 02:26:41;;;;;;;21.50;11.90;;;;;;;23.12;68.79;98680.36;25130;1313;3051677;-68
2022/08/19 02:29:10;;;;;;;16.20;8.20;;;;;;;23.04;69.58;98685.97;25060;1312;3028925;-69
2022/08/19 02:31:39;;;;;;;15.80;8.70;;;;;;;23.55;68.38;98683.13;25122;1313;3058022;-70
2022/08/19 02:34:08;;;;;;;19.00;10.20;;;;;;;24.09;66.73;98680.98;25146;1312;3026573;-69
2022/08/19 02:36:37;;;;;;;19.00;11.50;;;;;;;24.13;66.15;98678.06;25062;1313;3054459;-70
2022/08/19 02:39:06;;;;;;;20.70;12.10;;;;;;;24.03;66.40;98678.44;25178;1312;3026529;-71
2022/08/19 02:41:36;;;;;;;23.10;11.20;;;;;;;23.85;66.94;98681.08;25173;1313;3054152;-70
2022/08/19 02:44:05;;;;;;;21.60;11.40;;;;;;;23.66;67.59;98678.13;25093;1312;3028505;-70
2022/08/19 02:46:34;;;;;;;19.80;10.70;;;;;;;23.49;68.13;98683.37;25170;1312;3047664;-69
2022/08/19 02:49:04;;;;;;;20.40;11.20;;;;;;;23.40;68.03;98681.95;25162;1313;3026514;-69
2022/08/19 02:51:36;;;;;;;20.40;11.30;;;;;;;23.28;68.66;98689.38;25162;1313;3067970;-69
2022/08/19 02:54:06;;;;;;;16.30;8.10;;;;;;;23.21;69.07;98695.26;25168;1313;3026976;-68
2022/08/19 02:56:36;;;;;;;14.30;8.70;;;;;;;23.75;68.07;98695.09;25093;1312;3026704;-68
2022/08/19 02:59:09;;;;;;;19.20;9.70;;;;;;;24.24;66.46;98694.90;25160;1313;3026367;-68
2022/08/19 03:01:40;;;;;;;22.40;10.90;;;;;;;24.25;66.29;98697.13;25142;1313;3058682;-67
2022/08/19 03:04:12;;;;;;;20.70;10.80;;;;;;;24.12;66.59;98698.23;25043;1315;3027536;-69
2022/08/19 03:06:44;;;;;;;19.10;10.50;;;;;;;23.89;67.14;98703.97;25143;1315;3027137;-68
2022/08/19 03:09:13;;;;;;;17.20;9.90;;;;;;;23.69;67.81;98700.83;25094;1315;3027506;-68
2022/08/19 03:11:43;;;;;;;17.90;10.10;;;;;;;23.56;68.08;98698.23;25084;1315;3026649;-70
2022/08/19 03:14:12;;;;;;;18.40;9.90;;;;;;;23.55;68.05;98700.48;25076;1315;3026571;-70
2022/08/19 03:16:45;;;;;;;15.60;9.50;;;;;;;23.51;67.86;98703.14;25111;1315;3052849;-70
2022/08/19 03:19:18;;;;;;;16.30;6.20;;;;;;;23.44;68.37;98704.58;25124;1313;3026616;-69
2022/08/19 03:21:47;;;;;;;11.10;6.40;;;;;;;23.96;67.42;98698.68;25131;1313;3026946;-68
2022/08/19 03:24:18;;;;;;;15.00;8.90;;;;;;;24.44;65.86;98695.42;25113;1313;3027142;-66
2022/08/19 03:26:49;;;;;;;14.90;9.30;;;;;;;24.42;65.81;98696.45;25131;1313;3026477;-67
2022/08/19 03:29:18;;;;;;;15.40;9.60;;;;;;;24.28;66.07;98699.66;25030;1313;3029669;-68
2022/08/19 03:31:47;;;;;;;16.10;9.60;;;;;;;24.12;66.51;98699.55;25064;1312;3028153;-66
2022/08/19 03:34:19;;;;;;;15.60;10.50;;;;;;;23.91;67.31;98707.66;25132;1313;3026665;-68
2022/08/19 03:36:48;;;;;;;18.50;9.70;;;;;;;23.69;68.17;98705.27;25119;1313;3058570;-66
2022/08/19 03:39:17;;;;;;;13.30;9.10;;;;;;;23.56;68.84;98705.48;25169;1313;3026669;-69
2022/08/19 03:41:49;;;;;;;12.30;5.80;;;;;;;23.44;69.87;98708.45;25135;1313;3054270;-68
2022/08/19 03:44:22;;;;;;;13.20;7.20;;;;;;;23.86;69.47;98714.10;25081;1313;3026433;-69
2022/08/19 03:46:55;;;;;;;15.30;8.50;;;;;;;24.33;68.27;98712.40;25075;1313;3048971;-71
2022/08/19 03:49:26;;;;;;;16.90;9.90;;;;;;;24.42;67.64;98715.77;25110;1313;3026525;-71
2022/08/19 03:51:56;;;;;;;14.50;9.90;;;;;;;24.26;68.05;98718.33;25143;1313;3026357;-70
2022/08/19 03:54:26;;;;;;;15.30;9.20;;;;;;;24.07;68.77;98724.39;25125;1313;3026562;-68
2022/08/19 03:56:55;;;;;;;12.30;9.30;;;;;;;23.94;69.18;98724.68;25151;1313;3026622;-71
2022/08/19 03:59:31;;;;;;;12.60;9.00;;;;;;;23.81;69.65;98729.56;25112;1313;3026611;-70
2022/08/19 04:02:02;;;;;;;11.70;6.00;;;;;;;23.71;70.24;98730.05;25179;1313;3052408;-68
2022/08/19 04:04:31;;;;;;;12.30;7.30;;;;;;;24.23;68.92;98725.02;25156;1313;3026762;-68
2022/08/19 04:07:00;;;;;;;11.90;7.60;;;;;;;24.72;67.28;98722.83;25129;1312;3026437;-66
2022/08/19 04:09:29;;;;;;;14.20;8.40;;;;;;;24.81;66.49;98719.02;25122;1312;3050939;-66
2022/08/19 04:11:58;;;;;;;13.70;8.20;;;;;;;24.68;66.62;98717.98;25129;1314;3026029;-63
2022/08/19 04:14:29;;;;;;;13.20;8.90;;;;;;;24.52;66.99;98712.77;25108;1315;3054101;-68
2022/08/19 04:16:59;;;;;;;12.20;8.90;;;;;;;24.32;67.56;98712.23;25157;1315;3026448;-71
2022/08/19 04:19:29;;;;;;;16.30;9.30;;;;;;;24.20;68.06;98714.45;25102;1314;3026268;-70
2022/08/19 04:21:58;;;;;;;16.80;9.40;;;;;;;24.07;68.94;98713.95;25155;1313;3027125;-71
2022/08/19 04:24:28;;;;;;;12.60;7.50;;;;;;;24.00;69.51;98715.77;25161;1313;3026500;-67
2022/08/19 04:26:58;;;;;;;14.80;8.80;;;;;;;24.46;69.30;98709.27;25128;1314;3026868;-68
2022/08/19 04:29:29;;;;;;;16.50;10.70;;;;;;;24.95;68.04;98714.27;25018;1314;3049647;-67
2022/08/19 04:31:58;;;;;;;21.40;12.40;;;;;;;24.96;67.63;98714.16;25153;1313;3026986;-68
2022/08/19 04:34:29;;;;;;;18.90;11.70;;;;;;;24.81;68.10;98712.52;25132;1312;3027321;-69
2022/08/19 04:36:58;;;;;;;20.00;13.00;;;;;;;24.72;68.19;98715.15;25066;1314;3049291;-68
2022/08/19 04:45:06;;;;;;;20.40;13.20;;;;;;;24.21;70.28;98723.58;25141;1312;3052547;-69
2022/08/19 04:47:41;;;;;;;15.10;8.40;;;;;;;24.11;70.83;98730.48;25124;1313;3027282;-67
2022/08/19 04:50:11;;;;;;;15.20;10.40;;;;;;;24.69;69.20;98726.38;25134;1314;3052988;-72
2022/08/19 04:52:43;;;;;;;18.10;11.70;;;;;;;25.18;67.37;98730.42;25149;1313;3026704;-70
2022/08/19 04:55:12;;;;;;;17.50;12.50;;;;;;;25.28;66.75;98728.82;25156;1314;3027480;-70
2022/08/19 04:57:41;;;;;;;18.90;13.70;;;;;;;25.18;66.85;98730.70;25136;1314;3026557;-68
2022/08/19 05:00:11;;;;;;;21.40;13.30;;;;;;;25.02;67.26;98731.28;25135;1314;3026920;-71
2022/08/19 05:02:40;;;;;;;21.30;13.30;;;;;;;24.89;67.57;98734.44;25069;1313;3051112;-68
2022/08/19 05:05:10;;;;;;;19.60;13.80;;;;;;;24.81;67.53;98743.02;25092;1314;3026651;-70
2022/08/19 05:07:40;;;;;;;25.60;16.10;;;;;;;24.72;67.89;98744.02;25236;1313;3026449;-71
2022/08/19 05:10:10;;;;;;;16.20;9.40;;;;;;;24.62;68.76;98747.17;25144;1314;3049470;-70
2022/08/19 05:12:39;;;;;;;17.30;11.30;;;;;;;25.18;67.38;98744.81;25167;1314;3029869;-71
2022/08/19 05:15:08;;;;;;;19.90;13.20;;;;;;;25.73;65.62;98747.61;25102;1314;3070931;-68
2022/08/19 05:17:37;;;;;;;20.50;13.70;;;;;;;25.81;64.71;98747.34;25077;1314;3025888;-69
2022/08/19 05:22:55;;;;;;;19.90;13.20;;;;;;;25.60;65.46;98759.90;25088;1313;3070960;-70
2022/08/19 05:25:25;;;;;;;20.60;13.80;;;;;;;25.51;66.05;98760.52;25150;1315;3026285;-70
2022/08/19 05:27:55;;;;;;;24.10;14.30;;;;;;;25.43;65.52;98764.16;25149;1313;3028260;-71
2022/08/19 05:30:24;;;;;;;21.30;14.00;;;;;;;25.34;65.51;98769.28;25158;1313;3028767;-69
2022/08/19 05:32:53;;;;;;;21.20;13.30;;;;;;;25.26;65.83;98767.27;25082;1315;3026750;-69
2022/08/19 05:35:23;;;;;;;22.90;13.80;;;;;;;25.19;66.07;98766.97;25149;1314;3050192;-67
2022/08/19 05:37:54;;;;;;;19.00;10.90;;;;;;;25.17;65.50;98770.48;25106;1315;3026790;-67
2022/08/19 05:40:24;;;;;;;19.20;12.40;;;;;;;25.68;64.41;98774.45;25068;1314;3027581;-67
2022/08/19 05:42:53;;;;;;;29.80;18.60;;;;;;;26.30;63.22;98778.75;25118;1315;3026640;-70
2022/08/19 05:45:22;;;;;;;38.80;24.30;;;;;;;26.38;60.04;98782.54;25161;1314;3051604;-70
2022/08/19 05:47:51;;;;;;;39.80;24.60;;;;;;;26.21;59.58;98781.69;25087;1314;3026943;-70
2022/08/19 05:50:20;;;;;;;35.00;21.90;;;;;;;26.01;60.73;98781.83;25181;1314;3052987;-70
2022/08/19 05:52:49;;;;;;;34.80;20.10;;;;;;;25.91;61.00;98779.44;25122;1314;3027509;-69
2022/08/19 05:55:20;;;;;;;25.60;16.20;;;;;;;25.77;61.52;98777.70;25132;1313;3026768;-72
2022/08/19 05:57:49;;;;;;;24.60;15.50;;;;;;;25.69;61.77;98776.11;25100;1315;3026180;-70
2022/08/19 06:00:18;;;;;;;27.00;17.30;;;;;;;25.65;62.08;98773.02;25154;1314;3026307;-70
2022/08/19 06:02:47;;;;;;;27.40;16.90;;;;;;;25.53;62.53;98774.09;25060;1314;3058696;-68
2022/08/19 06:05:16;;;;;;;27.50;16.90;;;;;;;25.46;63.05;98776.29;25076;1314;3026764;-66
2022/08/19 06:07:46;;;;;;;27.30;16.80;;;;;;;25.44;63.24;98779.06;25149;1314;3051672;-67
2022/08/19 06:10:15;;;;;;;20.90;14.30;;;;;;;25.44;63.37;98778.89;25092;1314;3028705;-69
2022/08/19 06:12:45;;;;;;;20.50;13.90;;;;;;;25.50;63.36;98777.45;25095;1314;3027466;-71
2022/08/19 06:15:14;;;;;;;21.60;14.70;;;;;;;25.45;64.03;98772.20;25129;1314;3026679;-71
2022/08/19 06:17:46;;;;;;;20.70;14.50;;;;;;;25.49;63.84;98774.89;25179;1314;3026510;-68
2022/08/19 06:20:17;;;;;;;26.80;14.20;;;;;;;25.58;63.35;98777.08;25074;1314;3051511;-68
2022/08/19 06:22:49;;;;;;;20.90;13.40;;;;;;;25.66;63.31;98780.96;25137;1314;3027457;-68
2022/08/19 06:25:19;;;;;;;26.30;15.60;;;;;;;25.72;62.93;98786.50;25133;1313;3026476;-71
2022/08/19 06:27:48;;;;;;;25.70;15.20;;;;;;;25.75;62.70;98791.05;25155;1315;3027006;-66
2022/08/19 06:30:17;;;;;;;20.30;13.80;;;;;;;25.83;62.54;98793.08;25125;1312;3028463;-68
2022/08/19 06:32:46;;;;;;;20.30;13.10;;;;;;;25.95;62.41;98792.88;25201;1313;3053485;-70
2022/08/19 06:35:15;;;;;;;22.30;14.50;;;;;;;26.05;62.29;98796.75;25137;1314;3027498;-69
2022/08/19 06:37:44;;;;;;;22.40;13.10;;;;;;;26.09;62.46;98803.53;25082;1312;3055157;-68
2022/08/19 06:40:13;;;;;;;20.30;13.60;;;;;;;26.12;62.15;98801.54;25113;1314;3026534;-69
2022/08/19 06:42:42;;;;;;;23.00;13.60;;;;;;;26.10;62.00;98798.08;25167;1313;3051396;-70
2022/08/19 06:45:11;;;;;;;26.60;13.20;;;;;;;26.19;61.84;98799.33;25168;1312;3026452;-74
2022/08/19 06:47:45;;;;;;;22.60;13.30;;;;;;;26.24;61.86;98805.65;25169;1313;3055988;-69
2022/08/19 06:50:15;;;;;;;21.70;13.10;;;;;;;26.29;60.60;98810.45;25122;1315;3050058;-72
2022/08/19 06:52:44;;;;;;;19.20;12.80;;;;;;;26.35;59.92;98808.94;25171;1315;3026351;-71
2022/08/19 06:55:13;;;;;;;19.40;11.50;;;;;;;26.45;59.69;98811.14;25111;1313;3029498;-71
2022/08/19 06:57:42;;;;;;;19.20;12.40;;;;;;;26.55;60.41;98812.30;25126;1314;3052128;-71
2022/08/19 07:00:13;;;;;;;19.50;13.20;;;;;;;26.62;60.37;98813.73;25135;1314;3026421;-69
2022/08/19 07:02:42;;;;;;;18.20;12.80;;;;;;;26.68;60.16;98812.76;25202;1313;3057187;-72
2022/08/19 07:05:11;;;;;;;17.00;12.70;;;;;;;26.76;59.81;98811.63;25140;1315;3026255;-69
2022/08/19 07:07:42;;;;;;;19.90;13.60;;;;;;;26.83;59.79;98808.81;25184;1315;3054415;-72
2022/08/19 07:10:11;;;;;;;17.30;12.20;;;;;;;26.90;59.74;98807.83;25102;1315;3026055;-68
2022/08/19 07:12:45;;;;;;;19.70;11.70;;;;;;;27.03;59.26;98807.50;25140;1315;3027390;-71
2022/08/19 07:15:15;;;;;;;18.70;12.10;;;;;;;27.12;58.57;98808.37;25174;1315;3026251;-70
2022/08/19 07:17:44;;;;;;;17.80;13.20;;;;;;;27.18;58.39;98804.14;25206;1315;3029821;-67
2022/08/19 07:20:14;;;;;;;20.00;12.50;;;;;;;27.19;57.88;98807.20;25116;1313;3027063;-69
2022/08/19 07:22:45;;;;;;;14.90;10.90;;;;;;;27.28;57.56;98808.67;25159;1313;3053920;-70
2022/08/19 07:25:15;;;;;;;16.80;12.20;;;;;;;27.40;57.45;98807.33;25217;1313;3026697;-72
2022/08/19 07:27:44;;;;;;;15.80;11.80;;;;;;;27.51;56.28;98804.34;25165;1313;3026462;-70
2022/08/19 07:30:14;;;;;;;16.90;12.20;;;;;;;27.57;55.90;98805.71;25158;1312;3026268;-71
2022/08/19 07:32:43;;;;;;;18.70;11.90;;;;;;;27.65;55.75;98802.36;25121;1312;3053442;-71
2022/08/19 07:35:12;;;;;;;16.10;11.30;;;;;;;27.61;54.53;98800.52;25164;1313;3028995;-69
2022/08/19 07:37:44;;;;;;;15.20;11.20;;;;;;;27.67;55.21;98801.20;25150;1313;3053814;-66
2022/08/19 07:40:13;;;;;;;13.60;11.00;;;;;;;27.73;55.08;98811.75;25182;1313;3026983;-68
2022/08/19 07:42:42;;;;;;;19.00;11.20;;;;;;;27.75;55.21;98813.91;25156;1313;3029047;-69
2022/08/19 07:45:11;;;;;;;15.30;10.60;;;;;;;27.83;55.22;98813.95;25176;1312;3053445;-70
2022/08/19 07:47:40;;;;;;;15.80;11.50;;;;;;;27.89;54.96;98814.19;25156;1313;3028454;-70
2022/08/19 07:50:11;;;;;;;17.90;12.00;;;;;;;27.91;55.22;98816.05;25155;1313;3049511;-67
2022/08/19 07:52:44;;;;;;;21.60;12.20;;;;;;;27.90;55.55;98814.92;25189;1313;3026175;-70
2022/08/19 07:55:13;;;;;;;15.00;11.10;;;;;;;28.08;54.75;98815.66;25171;1313;3027157;-68
2022/08/19 07:57:42;;;;;;;15.10;10.80;;;;;;;28.24;54.61;98813.50;25192;1313;3027074;-72
2022/08/19 08:00:12;;;;;;;16.50;10.90;;;;;;;28.37;54.39;98809.33;25193;1313;3053668;-69
2022/08/19 08:02:42;;;;;;;12.00;9.70;;;;;;;28.44;53.84;98811.11;25112;1314;3026162;-69
2022/08/19 08:10:47;;;;;;;12.80;10.10;;;;;;;28.66;53.15;98802.95;25145;1313;3054487;-68
2022/08/19 08:13:16;;;;;;;19.20;10.60;;;;;;;28.74;52.72;98811.23;25066;1313;3027067;-66
2022/08/19 08:15:45;;;;;;;15.20;10.10;;;;;;;28.85;52.39;98801.70;25099;1315;3049082;-70
2022/08/19 08:18:14;;;;;;;13.70;9.10;;;;;;;28.95;51.78;98806.77;25166;1313;3026689;-69
2022/08/19 08:20:43;;;;;;;13.70;8.60;;;;;;;28.97;51.15;98806.61;25138;1313;3027204;-68
2022/08/19 08:23:29;;;;;;;9.60;7.90;;;;;;;29.07;51.56;98812.13;25189;1313;3048474;-66
2022/08/19 08:25:58;;;;;;;12.00;8.80;;;;;;;29.19;50.73;98815.13;25154;1312;3055081;-68
2022/08/19 08:28:27;;;;;;;10.70;8.40;;;;;;;29.20;49.32;98818.64;25225;1312;3027729;-71
2022/08/19 08:30:56;;;;;;;12.80;8.10;;;;;;;29.26;49.04;98818.16;25162;1313;3027714;-70
2022/08/19 08:33:27;;;;;;;11.10;7.50;;;;;;;29.43;49.42;98815.02;25143;1312;3051682;-72
2022/08/19 08:35:56;;;;;;;9.50;7.70;;;;;;;29.53;48.71;98817.21;25171;1313;3027916;-69
2022/08/19 08:38:25;;;;;;;11.90;8.00;;;;;;;29.62;48.19;98815.02;25118;1313;3027156;-69
2022/08/19 08:41:04;;;;;;;12.60;8.00;;;;;;;29.80;48.51;98814.38;25171;1313;3054760;-69
2022/08/19 08:43:35;;;;;;;9.50;7.60;;;;;;;29.99;48.17;98814.25;25129;1315;3053920;-68
2022/08/19 08:46:17;;;;;;;12.80;8.60;;;;;;;30.08;48.08;98811.42;25176;1315;3026690;-72
2022/08/19 08:48:49;;;;;;;11.50;8.40;;;;;;;30.16;48.04;98812.23;25226;1313;3049478;-71
2022/08/19 08:51:21;;;;;;;11.60;8.40;;;;;;;30.23;47.45;98811.48;25154;1315;3027505;-70
2022/08/19 08:53:53;;;;;;;10.90;8.20;;;;;;;30.35;47.16;98814.05;25127;1315;3053095;-71
2022/08/19 08:56:22;;;;;;;12.70;9.80;;;;;;;30.36;46.29;98813.98;25129;1313;3027013;-68
2022/08/19 08:59:01;;;;;;;10.40;8.10;;;;;;;30.29;46.51;98813.48;25075;1315;3026849;-70
2022/08/19 09:01:30;;;;;;;10.50;8.20;;;;;;;30.43;46.26;98812.13;25197;1313;3054093;-65
2022/08/19 09:03:59;;;;;;;13.30;9.70;;;;;;;30.62;46.76;98811.45;25118;1313;3026873;-67
2022/08/19 09:06:42;;;;;;;12.30;9.50;;;;;;;30.66;46.58;98810.61;25172;1313;3053219;-69
2022/08/19 09:09:18;;;;;;;12.00;9.30;;;;;;;30.75;45.96;98808.17;25152;1312;3051141;-69
2022/08/19 09:11:51;;;;;;;14.20;9.70;;;;;;;30.81;46.91;98805.84;25082;1315;3069231;-69
2022/08/19 09:14:27;;;;;;;17.00;10.30;;;;;;;30.80;47.37;98806.91;25174;1313;3026120;-69
2022/08/19 09:17:07;;;;;;;14.60;9.50;;;;;;;30.72;46.56;98808.61;25150;1315;3054270;-68
2022/08/19 09:19:51;;;;;;;11.90;9.30;;;;;;;30.68;47.27;98810.73;25257;1315;3055653;-70
2022/08/19 09:22:23;;;;;;;13.20;9.70;;;;;;;30.65;46.88;98810.37;25220;1315;3056998;-70
2022/08/19 09:24:53;;;;;;;11.90;9.80;;;;;;;30.66;46.72;98806.38;25158;1313;3026293;-70
2022/08/19 09:27:23;;;;;;;12.60;9.90;;;;;;;30.73;46.09;98808.30;25155;1313;3026870;-74
2022/08/19 09:29:53;;;;;;;12.30;9.10;;;;;;;30.91;45.09;98804.95;25184;1312;3028477;-69
2022/08/19 09:32:22;;;;;;;11.80;9.30;;;;;;;31.05;44.36;98807.45;25175;1313;3026286;-69
2022/08/19 09:34:54;;;;;;;13.10;9.40;;;;;;;31.18;45.32;98806.71;25118;1313;3026809;-70
2022/08/19 09:37:24;;;;;;;13.10;9.20;;;;;;;31.18;45.15;98810.18;25201;1313;3050629;-74
2022/08/19 09:39:54;;;;;;;12.10;9.90;;;;;;;31.07;44.45;98810.91;25178;1313;3026856;-68
2022/08/19 09:42:23;;;;;;;11.40;9.10;;;;;;;31.01;43.80;98811.50;25171;1313;3026175;-70
2022/08/19 09:44:52;;;;;;;17.50;9.80;;;;;;;30.96;44.04;98811.11;25183;1313;3053192;-73
2022/08/19 09:47:20;;;;;;;12.40;9.30;;;;;;;30.91;44.59;98815.91;25215;1314;3026570;-72
2022/08/19 09:49:50;;;;;;;13.40;9.00;;;;;;;30.92;45.49;98814.30;25211;1315;3055492;-74
2022/08/19 09:52:20;;;;;;;13.00;8.80;;;;;;;30.99;45.31;98813.83;25132;1312;3026646;-70
2022/08/19 09:54:52;;;;;;;13.70;9.60;;;;;;;31.03;44.39;98818.68;25116;1315;3025945;-72
2022/08/19 09:57:21;;;;;;;13.80;9.40;;;;;;;31.12;43.85;98819.26;25202;1315;3026939;-72
2022/08/19 09:59:51;;;;;;;12.90;8.80;;;;;;;31.10;42.94;98818.34;25151;1313;3027216;-72
2022/08/19 10:02:20;;;;;;;11.90;9.10;;;;;;;31.17;43.02;98818.53;25176;1314;3027902;-69
2022/08/19 10:07:37;;;;;;;10.80;8.40;;;;;;;31.08;43.78;98819.89;25159;1313;3053515;-73
2022/08/19 10:10:07;;;;;;;11.20;8.50;;;;;;;31.11;43.06;98818.75;25193;1313;3026436;-68
2022/08/19 10:12:37;;;;;;;11.00;7.20;;;;;;;31.32;42.16;98817.54;25145;1313;3027135;-72
2022/08/19 10:15:06;;;;;;;13.30;8.30;;;;;;;31.57;41.31;98816.73;25280;1313;3026954;-74
2022/08/19 10:17:36;;;;;;;10.50;8.00;;;;;;;31.82;41.77;98813.59;25215;1315;3054720;-70
2022/08/19 10:20:06;;;;;;;10.60;8.70;;;;;;;31.96;41.43;98812.51;25143;1313;3026294;-69
2022/08/19 10:22:37;;;;;;;11.40;8.40;;;;;;;31.80;40.84;98805.81;25153;1313;3054315;-70
2022/08/19 10:25:07;;;;;;;11.80;8.80;;;;;;;31.66;41.63;98808.64;25253;1315;3026665;-71
2022/08/19 10:27:38;;;;;;;11.30;8.10;;;;;;;31.78;41.81;98810.93;25182;1316;3026753;-73
2022/08/19 10:30:08;;;;;;;12.60;8.30;;;;;;;31.91;41.20;98806.23;25151;1315;3026482;-73
2022/08/19 10:32:37;;;;;;;11.80;7.60;;;;;;;32.05;40.23;98807.41;25161;1314;3052443;-71
2022/08/19 10:35:08;;;;;;;9.70;7.70;;;;;;;32.04;40.18;98803.76;25080;1317;3027187;-71
2022/08/19 10:37:37;;;;;;;10.10;7.50;;;;;;;32.18;39.94;98805.77;25225;1316;3053403;-69
2022/08/19 10:40:07;;;;;;;10.90;7.80;;;;;;;32.27;40.13;98809.05;25132;1314;3028004;-73
2022/08/19 10:42:36;;;;;;;10.00;8.00;;;;;;;32.34;40.48;98815.11;25165;1314;3048456;-74
2022/08/19 10:45:06;;;;;;;9.90;7.80;;;;;;;32.40;39.76;98811.80;25061;1317;3026705;-73
2022/08/19 10:47:35;;;;;;;11.80;8.60;;;;;;;32.29;39.58;98811.23;25173;1315;3026605;-74
2022/08/19 10:52:51;;;;;;;10.90;8.90;;;;;;;32.11;40.00;98798.64;25100;1315;3052718;-69
2022/08/19 10:58:15;;;;;;;10.10;7.10;;;;;;;32.40;39.49;98802.14;25157;1315;3055978;-72
2022/08/19 11:00:51;;;;;;;11.50;8.50;;;;;;;32.29;39.68;98800.65;25095;1316;3050053;-65
2022/08/19 11:03:21;;;;;;;10.50;8.00;;;;;;;32.10;39.93;98799.02;25099;1318;3052604;-68
2022/08/19 11:06:00;;;;;;;10.00;7.60;;;;;;;32.05;40.70;98794.48;25062;1316;3027004;-66
2022/08/19 11:08:31;;;;;;;12.40;8.30;;;;;;;32.04;40.26;98791.33;25042;1318;3071657;-64
2022/08/19 11:11:02;;;;;;;10.40;8.00;;;;;;;32.13;39.66;98781.52;25047;1315;3026455;-68
2022/08/19 11:13:36;;;;;;;12.30;7.70;;;;;;;32.41;39.36;98774.70;25131;1314;3028496;-70
2022/08/19 11:16:13;;;;;;;10.00;7.70;;;;;;;32.61;38.90;98778.80;25100;1315;3055708;-72
2022/08/19 11:18:47;;;;;;;9.10;7.40;;;;;;;32.56;38.80;98785.64;25052;1314;3056039;-70
2022/08/19 11:21:20;;;;;;;12.50;8.00;;;;;;;32.41;39.00;98789.06;25146;1314;3051050;-72
2022/08/19 11:23:52;;;;;;;12.60;8.00;;;;;;;32.35;39.33;98794.30;25122;1316;3026358;-70
2022/08/19 11:26:22;;;;;;;10.00;7.80;;;;;;;32.26;39.67;98786.03;25111;1316;3028199;-74
2022/08/19 11:28:54;;;;;;;11.60;7.80;;;;;;;32.11;40.77;98780.40;25071;1318;3027108;-69
2022/08/19 11:31:30;;;;;;;9.60;7.50;;;;;;;31.99;41.45;98777.11;25130;1314;3026347;-69
2022/08/19 11:34:01;;;;;;;8.60;7.60;;;;;;;31.89;41.23;98775.69;25123;1316;3051967;-71
2022/08/19 11:36:32;;;;;;;10.20;7.60;;;;;;;31.77;41.60;98776.33;25129;1318;3029183;-69
2022/08/19 11:39:04;;;;;;;13.70;9.10;;;;;;;31.65;41.97;98782.34;25062;1317;3027257;-70
2022/08/19 11:41:34;;;;;;;11.40;8.60;;;;;;;31.46;42.75;98786.73;25136;1318;3027042;-69